Latest Weather Observations for Perth Airport

IDW60801

Issued at 3:35 pm WST Monday 20 October 2014 (issued every 30 minutes, with the page automatically refreshed every 10 minutes)

About weather observations | Map of weather stations | Latest weather observations for WA | Other Formats
Station Details ID: 009021 Name: PERTH AIRPORT Lat: -31.93 Lon: 115.98 Height: 15.4 m
Data from the previous 72 hours. | See also: Recent months at Perth Airport
Date/Time
WST
Temp
°C
App
Temp
°C
Dew
Point
Rel
Hum
%
Delta-T
°C
Wind Press
QNH
hPa
Press
MSL
hPa
Rain
since 9 am
mm
Dir
 
Spd
km/h
Gust
km/h
Spd
kts
Gust
kts
20/03:30pm 20.2 16.0 11.1 56 5.0 WSW 24 35 13 19 1018.5 - 0.0
20/03:00pm 20.5 15.8 10.6 53 5.4 W 26 35 14 19 1018.4 1018.4 0.0
20/02:30pm 21.0 15.8 10.1 49 5.9 WSW 28 39 15 21 1018.3 - 0.0
20/02:00pm 20.6 15.7 10.0 50 5.7 W 26 39 14 21 1018.1 - 0.0
20/01:30pm 20.2 15.0 10.2 52 5.4 W 28 37 15 20 1018.1 - 0.0
20/01:00pm 19.2 14.6 10.9 58 4.5 W 26 33 14 18 1018.2 - 0.0
20/12:30pm 19.7 15.4 10.9 57 4.8 WSW 24 37 13 20 1018.0 - 0.0
20/12:00pm 19.6 15.2 10.5 55 4.9 W 24 33 13 18 1017.8 1017.8 0.0
20/11:30am 19.1 15.0 11.6 62 4.1 W 24 32 13 17 1017.9 - 0.0
20/11:00am 18.3 14.7 10.5 60 4.2 W 20 28 11 15 1018.0 - 0.0
20/10:30am 19.4 16.0 10.5 56 4.8 SW 19 28 10 15 1018.0 - 0.0
20/10:00am 17.8 14.1 10.3 61 4.0 WSW 20 32 11 17 1018.1 - 0.0
20/09:30am 18.3 15.6 10.2 59 4.3 SW 15 24 8 13 1018.1 - 0.0
20/09:00am 17.7 14.4 10.8 64 3.7 SSW 19 28 10 15 1018.2 1018.2 3.2
20/08:30am 16.6 13.9 10.4 67 3.3 SSW 15 30 8 16 1018.0 - 3.2
20/08:00am 15.9 13.9 10.2 69 3.0 SW 11 20 6 11 1018.1 - 3.2
20/07:30am 14.9 13.6 10.1 73 2.5 S 7 11 4 6 1018.0 - 3.2
20/07:00am 13.7 11.9 9.6 76 2.1 S 9 13 5 7 1017.6 - 3.2
20/06:30am 11.6 11.7 10.2 91 0.7 CALM 0 0 0 0 1017.4 - 3.2
20/06:00am 9.8 8.2 8.8 93 0.5 SSE 7 9 4 5 1016.9 1016.9 3.2
20/05:30am 10.2 8.7 9.0 92 0.6 SSW 7 7 4 4 1016.6 - 3.2
20/05:00am 11.8 9.6 9.4 85 1.2 SSE 11 17 6 9 1016.1 - 3.2
20/04:30am 12.6 8.8 9.2 80 1.7 SSE 19 24 10 13 1016.1 - 3.2
20/04:00am 12.1 10.4 9.7 85 1.2 SSW 9 13 5 7 1016.0 - 3.2
20/03:30am 11.3 9.5 9.5 89 0.9 SW 9 11 5 6 1015.9 - 3.2
20/03:00am 11.3 9.1 9.5 89 0.9 S 11 13 6 7 1015.7 1015.7 3.2
20/02:30am 12.0 9.9 9.8 86 1.1 S 11 13 6 7 1015.7 - 3.2
20/02:00am 11.7 9.2 9.7 87 1.0 S 13 15 7 8 1015.5 - 3.2
20/01:30am 11.7 8.4 9.5 86 1.1 S 17 20 9 11 1015.7 - 3.2
20/01:00am 12.3 8.4 9.3 82 1.5 S 20 26 11 14 1015.8 - 3.2
20/12:30am 12.7 8.4 9.3 80 1.7 SSW 22 28 12 15 1016.3 - 3.2
20/12:00am 12.6 8.3 9.4 81 1.6 S 22 26 12 14 1016.2 1016.2 3.2
 
Date/Time
WST
Temp
°C
App
Temp
°C
Dew
Point
Rel
Hum
%
Delta-T
°C
Wind Press
QNH
hPa
Press
MSL
hPa
Rain
since 9 am
mm
Dir
 
Spd
km/h
Gust
km/h
Spd
kts
Gust
kts
19/11:30pm 13.1 9.8 9.4 78 1.9 SSW 17 24 9 13 1016.4 - 3.2
19/11:00pm 12.8 9.9 9.7 81 1.6 SSW 15 19 8 10 1016.5 - 3.2
19/10:30pm 13.1 10.2 9.6 79 1.8 SSW 15 19 8 10 1016.3 - 3.2
19/10:00pm 13.7 11.2 9.8 77 2.0 SSW 13 19 7 10 1016.3 - 3.2
19/09:30pm 13.8 11.2 9.5 75 2.2 SSW 13 17 7 9 1016.5 - 3.2
19/09:00pm 14.3 11.0 9.6 73 2.4 SSW 17 20 9 11 1016.5 1016.5 3.2
19/08:30pm 14.6 12.1 9.8 73 2.5 SSW 13 17 7 9 1016.2 - 3.2
19/08:00pm 14.8 11.6 9.8 72 2.6 S 17 22 9 12 1016.1 - 3.2
19/07:30pm 15.1 11.6 10.1 72 2.6 S 19 24 10 13 1015.7 - 3.2
19/07:00pm 15.1 11.6 10.1 72 2.6 SE 19 28 10 15 1015.1 - 3.2
19/06:30pm 15.5 12.1 10.6 72 2.6 SSE 19 24 10 13 1014.5 - 3.2
19/06:00pm 15.8 12.3 10.1 69 3.0 SSE 19 26 10 14 1014.3 1014.3 3.2
19/05:30pm 16.5 12.4 10.0 65 3.4 SSE 22 30 12 16 1014.1 - 3.2
19/05:00pm 17.3 12.1 10.3 63 3.7 SSE 28 37 15 20 1013.9 - 3.2
19/04:30pm 18.0 12.2 10.8 63 3.9 S 32 37 17 20 1013.5 - 3.2
19/04:00pm 17.5 12.5 10.8 65 3.6 SSE 28 37 15 20 1013.3 - 3.2
19/03:30pm 17.3 12.6 12.0 71 2.9 S 28 35 15 19 1013.0 - 3.2
19/03:00pm 18.0 15.0 13.6 75 2.5 S 22 30 12 16 1013.0 1013.0 3.2
19/02:30pm 15.9 11.6 13.2 84 1.5 S 28 37 15 20 1013.4 - 3.2
19/02:00pm 16.7 14.2 14.1 85 1.5 S 20 26 11 14 1013.6 - 3.2
19/01:30pm 15.7 12.4 14.1 90 0.9 S 24 32 13 17 1014.1 - 3.0
19/01:00pm 15.3 13.4 14.1 92 0.7 SSW 17 24 9 13 1014.4 - 3.0
19/12:53pm 14.8 12.8 13.9 94 0.5 SSW 17 20 9 11 1014.6 - 3.0
19/12:30pm 14.6 12.8 13.3 92 0.7 S 15 19 8 10 1014.8 - 2.6
19/12:00pm 14.6 12.0 13.2 91 0.8 S 19 22 10 12 1015.1 1015.1 1.8
19/11:56am 14.7 12.1 13.3 91 0.8 SSW 19 22 10 12 1015.1 - 1.8
19/11:30am 15.4 13.7 13.6 89 1.0 SSW 15 19 8 10 1015.2 - 1.4
19/11:00am 14.9 13.3 12.7 87 1.2 S 13 19 7 10 1015.5 - 1.2
19/10:30am 14.6 12.9 12.6 88 1.1 SSE 13 19 7 10 1015.8 - 1.2
19/10:00am 14.4 12.9 12.0 85 1.3 ESE 11 13 6 7 1015.8 - 0.6
19/09:30am 15.0 12.0 10.8 76 2.2 SE 17 22 9 12 1015.7 - 0.0
19/09:00am 15.1 11.9 10.1 72 2.6 SE 17 28 9 15 1015.5 1015.5 8.2
19/08:30am 15.1 12.4 10.3 73 2.5 ESE 15 22 8 12 1015.2 - 8.2
19/08:00am 14.7 11.7 10.5 76 2.2 SE 17 26 9 14 1015.2 - 8.2
19/07:30am 14.7 11.7 10.7 77 2.1 SSE 17 26 9 14 1015.0 - 8.2
19/07:00am 14.7 11.1 10.7 77 2.1 SE 20 33 11 18 1015.0 - 8.2
19/06:30am 14.6 11.5 10.4 76 2.2 ESE 17 28 9 15 1014.9 - 8.2
19/06:00am 14.6 10.5 10.0 74 2.4 SE 22 41 12 22 1014.6 1014.6 8.2
19/05:30am 14.6 10.1 10.2 75 2.3 ESE 24 30 13 16 1014.3 - 8.2
19/05:00am 14.8 9.9 10.0 73 2.5 ESE 26 33 14 18 1014.3 - 8.2
19/04:30am 14.9 11.2 10.1 73 2.5 ESE 20 35 11 19 1014.2 - 8.2
19/04:00am 14.8 11.7 10.2 74 2.4 ESE 17 26 9 14 1014.0 - 8.2
19/03:30am 14.9 11.7 10.1 73 2.5 SSE 17 28 9 15 1013.9 - 8.2
19/03:00am 14.8 12.4 10.0 73 2.5 SE 13 24 7 13 1013.8 1013.8 8.2
19/02:30am 14.8 12.1 10.2 74 2.4 SSE 15 19 8 10 1013.8 - 8.2
19/02:00am 14.5 12.3 10.9 79 1.9 S 13 22 7 12 1014.0 - 8.2
19/01:30am 14.6 12.4 10.8 78 2.0 SE 13 22 7 12 1013.9 - 8.2
19/01:00am 14.7 11.3 10.7 77 2.1 ESE 19 30 10 16 1014.3 - 8.2
19/12:30am 14.6 10.3 10.8 78 2.0 E 24 37 13 20 1014.4 - 8.2
19/12:00am 14.5 7.7 10.7 78 2.0 E 37 57 20 31 1014.3 1014.3 8.2
 
Date/Time
WST
Temp
°C
App
Temp
°C
Dew
Point
Rel
Hum
%
Delta-T
°C
Wind Press
QNH
hPa
Press
MSL
hPa
Rain
since 9 am
mm
Dir
 
Spd
km/h
Gust
km/h
Spd
kts
Gust
kts
18/11:33pm 14.6 7.0 10.6 77 2.1 E 41 61 22 33 1014.1 - 8.2
18/11:30pm 14.6 7.0 10.6 77 2.1 E 41 56 22 30 1014.2 - 8.2
18/11:00pm 14.5 7.0 10.7 78 2.0 E 41 63 22 34 1014.3 - 8.2
18/10:30pm 14.7 7.6 10.9 78 2.0 ESE 39 59 21 32 1014.5 - 8.2
18/10:00pm 14.6 8.5 11.6 82 1.6 ESE 35 50 19 27 1014.9 - 8.2
18/09:49pm 14.7 9.5 11.5 81 1.7 ESE 30 50 16 27 1014.6 - 8.2
18/09:30pm 14.8 9.3 12.0 83 1.5 ESE 32 48 17 26 1014.8 - 8.2
18/09:13pm 14.8 10.2 12.2 84 1.4 ESE 28 41 15 22 1015.1 - 7.8
18/09:00pm 15.0 11.1 12.2 83 1.5 ESE 24 22 13 12 1015.5 1015.5 7.6
18/08:50pm 15.1 10.9 12.5 84 1.4 SE 26 39 14 21 1015.7 - 7.4
18/08:30pm 16.0 13.9 12.4 79 2.0 SSE 15 20 8 11 1015.7 - 3.8
18/08:26pm 17.0 14.7 11.7 71 2.9 SSE 15 22 8 12 1015.6 - 0.8
18/08:11pm 16.8 13.8 12.1 74 2.6 SE 19 26 10 14 1014.9 - 0.6
18/08:00pm 16.8 13.8 11.9 73 2.7 SSE 19 28 10 15 1014.6 - 0.6
18/07:30pm 18.1 14.5 10.4 60 4.1 S 20 30 11 16 1013.9 - 0.4
18/07:00pm 17.7 14.6 11.5 67 3.4 S 19 24 10 13 1013.2 - 0.4
18/06:30pm 17.6 12.8 11.6 68 3.3 SSE 28 37 15 20 1012.5 - 0.4
18/06:00pm 18.5 12.5 10.9 61 4.1 SE 33 44 18 24 1012.2 1012.2 0.4
18/05:30pm 19.0 14.0 11.1 60 4.3 SE 28 41 15 22 1012.4 - 0.4
18/05:00pm 19.5 16.1 12.6 64 3.9 S 22 30 12 16 1011.6 - 0.2
18/04:50pm 19.7 16.7 12.4 62 4.1 S 20 30 11 16 1011.4 - 0.2
18/04:30pm 19.6 17.5 12.5 63 4.0 SE 15 20 8 11 1011.1 - 0.2
18/04:00pm 19.8 16.2 11.9 60 4.4 E 22 32 12 17 1010.4 - 0.0
18/03:47pm 20.9 14.5 10.7 52 5.6 E 35 48 19 26 1010.3 - 0.0
18/03:30pm 22.2 16.2 10.1 46 6.6 ESE 32 44 17 24 1009.7 - 0.0
18/03:00pm 23.3 18.2 10.7 45 7.0 ESE 28 39 15 21 1009.6 1009.6 0.0
18/02:30pm 22.2 16.6 11.5 50 6.0 ESE 32 43 17 23 1010.0 - 0.0
18/02:00pm 23.7 19.7 11.7 47 6.8 E 24 33 13 18 1010.1 - 0.0
18/01:30pm 22.9 18.9 11.7 49 6.3 E 24 32 13 17 1010.5 - 0.0
18/01:00pm 22.7 18.0 12.1 51 6.0 E 28 37 15 20 1010.7 - 0.0
18/12:30pm 23.1 17.8 12.6 51 6.0 E 32 41 17 22 1010.9 - 0.0
18/12:00pm 21.7 18.7 12.5 56 5.2 E 20 30 11 16 1011.2 1011.2 0.0
18/11:30am 21.5 16.9 12.3 55 5.2 ESE 28 37 15 20 1011.3 - 0.0
18/11:00am 21.4 18.0 12.4 56 5.1 ESE 22 30 12 16 1011.5 - 0.0
18/10:30am 22.0 19.1 12.9 56 5.2 ESE 20 44 11 24 1011.5 - 0.0
18/10:00am 21.2 17.9 12.8 58 4.8 ESE 22 39 12 21 1011.4 - 0.0
18/09:30am 20.2 16.9 12.8 62 4.2 E 22 39 12 21 1011.2 - 0.0
18/09:00am 20.3 17.5 13.1 63 4.1 ESE 20 32 11 17 1011.1 1011.1 1.2
18/08:30am 19.3 15.9 12.5 64 3.8 E 22 28 12 15 1011.0 - 1.2
18/08:00am 18.5 16.5 12.6 68 3.3 E 15 20 8 11 1010.5 - 1.2
18/07:30am 17.8 15.2 12.0 69 3.2 ESE 17 26 9 14 1010.2 - 1.2
18/07:00am 17.1 14.5 12.0 72 2.8 E 17 28 9 15 1009.9 - 1.2
18/06:30am 16.3 15.6 11.9 75 2.4 S 7 13 4 7 1009.7 - 1.2
18/06:00am 15.7 13.5 12.0 78 2.0 ESE 15 26 8 14 1009.1 1009.1 1.2
18/05:30am 15.7 12.2 12.2 80 1.9 ESE 22 37 12 20 1009.0 - 1.2
18/05:00am 15.7 12.2 12.2 80 1.9 E 22 32 12 17 1009.6 - 1.2
18/04:30am 15.7 11.6 12.6 82 1.7 ESE 26 37 14 20 1009.8 - 1.2
18/04:26am 15.8 10.9 12.5 81 1.8 ESE 30 48 16 26 1009.8 - 1.2
18/04:00am 15.9 11.1 13.0 83 1.6 E 30 37 16 20 1009.7 - 1.2
18/03:30am 16.0 13.9 13.7 86 1.3 E 17 28 9 15 1009.5 - 1.0
18/03:00am 16.6 13.1 13.4 81 1.8 SE 24 33 13 18 1010.0 1010.0 1.0
18/02:30am 16.3 13.9 13.8 85 1.4 SE 19 26 10 14 1010.8 - 1.0
18/02:00am 16.7 15.3 13.5 81 1.8 SSE 13 17 7 9 1010.9 - 0.6
18/01:30am 17.3 13.2 12.6 74 2.6 S 26 33 14 18 1009.9 - 0.4
18/01:00am 16.5 14.2 14.0 85 1.4 S 19 32 10 17 1010.2 - 0.4
18/12:30am 15.6 15.2 14.0 90 0.9 SSW 9 15 5 8 1011.5 - 0.4
18/12:00am 16.4 14.7 12.6 78 2.1 SE 13 19 7 10 1012.0 1012.0 0.0
 
Date/Time
WST
Temp
°C
App
Temp
°C
Dew
Point
Rel
Hum
%
Delta-T
°C
Wind Press
QNH
hPa
Press
MSL
hPa
Rain
since 9 am
mm
Dir
 
Spd
km/h
Gust
km/h
Spd
kts
Gust
kts
17/11:30pm 17.1 14.6 12.2 73 2.7 SSW 17 19 9 10 1011.4 - 0.0
17/11:00pm 17.1 15.6 11.8 71 2.9 SSW 11 13 6 7 1011.4 - 0.0
17/10:30pm 17.1 15.2 11.8 71 2.9 SSW 13 17 7 9 1011.3 - 0.0
17/10:00pm 17.1 14.4 11.6 70 3.0 SSW 17 20 9 11 1010.7 - 0.0
17/09:30pm 17.3 13.8 11.0 66 3.4 S 20 30 11 16 1010.8 - 0.0
17/09:00pm 17.6 12.4 10.3 62 3.9 S 28 37 15 20 1011.3 1011.3 0.0
17/08:30pm 17.9 12.6 9.8 59 4.3 S 28 33 15 18 1011.6 - 0.0
17/08:00pm 18.3 12.9 9.4 56 4.7 S 28 37 15 20 1011.6 - 0.0
17/07:30pm 18.7 13.1 8.9 53 5.1 S 28 35 15 19 1011.7 - 0.0
17/07:00pm 19.0 13.6 9.6 54 5.0 S 28 35 15 19 1011.6 - 0.0
17/06:30pm 19.5 14.1 9.5 52 5.3 SSW 28 35 15 19 1011.7 - 0.0
17/06:00pm 20.0 14.6 9.5 50 5.6 SSW 28 33 15 18 1011.9 1011.9 0.0
17/05:30pm 20.5 15.1 9.4 49 5.9 S 28 33 15 18 1012.0 - 0.0
17/05:00pm 21.4 16.5 9.9 48 6.2 SSW 26 33 14 18 1012.1 - 0.0
17/04:30pm 21.6 16.6 9.7 46 6.4 SW 26 35 14 19 1012.0 - 0.0
17/04:00pm 22.0 17.5 10.0 46 6.5 SW 24 33 13 18 1012.1 - 0.0

Other Formats:

Comma delimited format used in spreadsheet applications
http://www.bom.gov.au/fwo/IDW60801/IDW60801.94610.axf

JavaScript Object Notation format (JSON) in row-major order
http://www.bom.gov.au/fwo/IDW60801/IDW60801.94610.json